Time;durP1;ratioP1;P1;durP2;ratioP2;P2;SDS_P1;SDS_P2;PMS_P1;PMS_P2;Temp;Humidity;BMP_temperature;BMP_pressure;BME280_temperature;BME280_humidity;BME280_pressure;Samples;Min_cycle;Max_cycle;Signal;HPM_P1;HPM_P2
2024/01/17 00:01:47;;;;;;;6.13;3.93;;;;;;;-2.45;100.00;97204.69;5078939;28;20494;-66
2024/01/17 00:04:14;;;;;;;7.90;4.40;;;;;;;-2.59;100.00;97224.09;5076497;28;20167;-66
2024/01/17 00:06:41;;;;;;;5.97;3.47;;;;;;;-2.61;100.00;97226.00;5096394;27;20047;-66
2024/01/17 00:09:07;;;;;;;6.57;4.57;;;;;;;-2.66;100.00;97228.16;5112533;28;20042;-65
2024/01/17 00:11:33;;;;;;;6.67;4.03;;;;;;;-2.73;100.00;97234.03;5110681;27;20040;-65
2024/01/17 00:13:59;;;;;;;5.73;4.03;;;;;;;-2.72;100.00;97249.50;5079239;28;20450;-65
2024/01/17 00:16:25;;;;;;;7.07;3.80;;;;;;;-2.79;100.00;97235.41;5112021;28;20364;-65
2024/01/17 00:18:54;;;;;;;6.73;4.20;;;;;;;-2.71;100.00;97238.16;5095082;28;20096;-65
2024/01/17 00:21:21;;;;;;;5.60;3.80;;;;;;;-2.85;100.00;97227.34;5093390;28;20372;-65
2024/01/17 00:23:46;;;;;;;6.43;4.07;;;;;;;-2.85;100.00;97245.50;5092618;28;20569;-66
2024/01/17 00:26:12;;;;;;;7.27;4.80;;;;;;;-2.86;100.00;97262.06;5092829;28;20055;-65
2024/01/17 00:28:38;;;;;;;8.20;4.40;;;;;;;-2.93;100.00;97241.00;5059404;28;20625;-65
2024/01/17 00:31:03;;;;;;;7.10;4.50;;;;;;;-2.94;100.00;97249.75;5109625;28;20391;-66
2024/01/17 00:33:30;;;;;;;8.17;5.07;;;;;;;-2.95;100.00;97273.25;5093221;28;20051;-66
2024/01/17 00:35:55;;;;;;;7.17;4.23;;;;;;;-3.00;100.00;97267.63;5093934;28;20364;-66
2024/01/17 00:38:21;;;;;;;7.83;4.57;;;;;;;-3.11;100.00;97262.53;5110592;28;20541;-65
2024/01/17 00:40:48;;;;;;;10.30;5.37;;;;;;;-3.15;100.00;97264.56;5111393;28;20375;-65
2024/01/17 00:43:13;;;;;;;7.93;4.67;;;;;;;-3.22;100.00;97267.81;5093321;28;20044;-66
2024/01/17 00:45:40;;;;;;;7.93;4.37;;;;;;;-3.20;100.00;97264.16;5110703;28;20047;-65
2024/01/17 00:48:05;;;;;;;7.70;4.47;;;;;;;-3.27;100.00;97273.38;5110772;28;20035;-66
2024/01/17 00:50:31;;;;;;;8.00;4.83;;;;;;;-3.31;100.00;97274.63;5111350;28;20036;-66
2024/01/17 00:52:58;;;;;;;9.17;5.33;;;;;;;-3.35;100.00;97295.75;5093748;28;20071;-66
2024/01/17 00:55:24;;;;;;;11.07;5.77;;;;;;;-3.41;100.00;97250.38;5093445;28;20105;-66
2024/01/17 00:57:50;;;;;;;9.83;5.20;;;;;;;-3.44;100.00;97263.63;5111817;28;20044;-66
2024/01/17 01:00:16;;;;;;;10.90;4.80;;;;;;;-3.48;100.00;97280.41;5131471;27;20035;-66
2024/01/17 01:02:43;;;;;;;8.17;4.90;;;;;;;-3.49;100.00;97304.72;5115098;28;20166;-66
2024/01/17 01:05:11;;;;;;;7.80;4.93;;;;;;;-3.44;100.00;97299.94;5131559;27;20043;-66
2024/01/17 01:07:38;;;;;;;11.00;5.37;;;;;;;-3.54;100.00;97301.66;5097429;28;20047;-66
2024/01/17 01:10:04;;;;;;;9.97;4.90;;;;;;;-3.54;100.00;97301.66;5114311;27;20096;-66
2024/01/17 01:12:29;;;;;;;9.90;5.63;;;;;;;-3.59;100.00;97322.81;5114290;28;20053;-66
2024/01/17 01:14:55;;;;;;;13.47;5.90;;;;;;;-3.66;100.00;97313.06;5114198;28;20134;-65
2024/01/17 01:17:21;;;;;;;13.23;6.57;;;;;;;-3.69;100.00;97313.31;5116710;28;20130;-66
2024/01/17 01:19:46;;;;;;;12.73;5.97;;;;;;;-3.72;100.00;97322.16;5098466;28;20042;-66
2024/01/17 01:22:12;;;;;;;10.10;5.20;;;;;;;-3.69;100.00;97324.50;5097601;28;20044;-67
2024/01/17 01:24:38;;;;;;;8.57;4.97;;;;;;;-3.70;100.00;97322.03;5113765;28;20062;-65
2024/01/17 01:27:04;;;;;;;9.63;5.50;;;;;;;-3.70;100.00;97324.63;5114905;28;20039;-65
2024/01/17 01:29:30;;;;;;;12.50;4.90;;;;;;;-3.78;100.00;97325.25;5113733;28;20122;-66
2024/01/17 01:31:58;;;;;;;8.67;5.20;;;;;;;-3.72;100.00;97336.91;5114745;28;20432;-66
2024/01/17 01:34:23;;;;;;;10.27;5.10;;;;;;;-3.74;100.00;97337.00;5113870;28;20127;-66
2024/01/17 01:36:49;;;;;;;11.37;5.70;;;;;;;-3.71;100.00;97339.38;5130588;27;20126;-66
2024/01/17 01:39:15;;;;;;;8.20;5.10;;;;;;;-3.74;100.00;97339.59;5113416;28;20074;-66
2024/01/17 01:41:41;;;;;;;10.37;5.33;;;;;;;-3.70;100.00;97343.59;5096808;28;20044;-66
2024/01/17 01:44:07;;;;;;;8.80;4.83;;;;;;;-3.74;100.00;97344.78;5097094;28;20124;-66
2024/01/17 01:46:33;;;;;;;9.70;5.20;;;;;;;-3.69;100.00;97339.25;5097759;28;20035;-66
2024/01/17 01:48:59;;;;;;;9.50;5.27;;;;;;;-3.72;100.00;97345.50;5079835;28;20088;-66
2024/01/17 01:51:25;;;;;;;7.50;4.77;;;;;;;-3.68;100.00;97346.91;5096897;28;20054;-65
2024/01/17 01:53:53;;;;;;;8.63;5.20;;;;;;;-3.65;100.00;97369.16;5079195;28;20502;-66
2024/01/17 01:56:21;;;;;;;8.67;4.90;;;;;;;-3.69;100.00;97360.00;5114239;28;20036;-66
2024/01/17 01:58:49;;;;;;;9.70;4.77;;;;;;;-3.74;100.00;97341.41;5079184;28;20070;-67
2024/01/17 02:01:15;;;;;;;6.60;3.87;;;;;;;-3.79;100.00;97351.31;5113047;28;20047;-67
2024/01/17 02:03:43;;;;;;;9.37;4.93;;;;;;;-3.73;100.00;97359.41;5114130;27;20134;-66
2024/01/17 02:06:11;;;;;;;10.57;5.50;;;;;;;-3.75;100.00;97371.69;5096451;28;20463;-66
2024/01/17 02:08:37;;;;;;;8.20;4.83;;;;;;;-3.78;100.00;97368.50;5112604;28;20422;-66
2024/01/17 02:11:03;;;;;;;11.10;5.47;;;;;;;-3.83;100.00;97365.47;5112938;28;20147;-66
2024/01/17 02:13:29;;;;;;;9.13;5.10;;;;;;;-3.88;100.00;97372.81;5095813;28;20039;-67
2024/01/17 02:15:55;;;;;;;11.60;5.50;;;;;;;-3.82;100.00;97372.31;5096624;28;20046;-66
2024/01/17 02:18:22;;;;;;;8.73;5.33;;;;;;;-3.87;100.00;97390.00;5095256;28;20442;-66
2024/01/17 02:20:47;;;;;;;8.03;4.70;;;;;;;-3.86;100.00;97400.25;5111651;28;20590;-66
2024/01/17 02:23:24;;;;;;;7.17;4.70;;;;;;;-3.75;100.00;97389.00;5078627;28;20048;-66
2024/01/17 02:25:51;;;;;;;9.53;5.30;;;;;;;-3.85;100.00;97399.31;5094668;28;20043;-66
2024/01/17 02:28:16;;;;;;;10.73;5.67;;;;;;;-3.92;100.00;97395.56;5111570;28;20048;-66
2024/01/17 02:30:45;;;;;;;11.40;5.10;;;;;;;-3.86;100.00;97395.06;5077886;28;20104;-66
2024/01/17 02:33:12;;;;;;;10.30;5.10;;;;;;;-3.93;100.00;97393.09;5094731;28;20395;-66
2024/01/17 02:35:38;;;;;;;12.13;5.63;;;;;;;-3.99;100.00;97409.97;5093725;28;20116;-66
2024/01/17 02:38:05;;;;;;;9.77;5.87;;;;;;;-4.03;100.00;97411.13;5111095;28;20090;-66
2024/01/17 02:40:31;;;;;;;10.13;5.47;;;;;;;-4.07;100.00;97406.31;5060022;28;20150;-66
2024/01/17 02:42:57;;;;;;;9.60;5.37;;;;;;;-4.00;100.00;97420.44;5076346;28;20048;-66
2024/01/17 02:45:23;;;;;;;8.93;5.27;;;;;;;-4.02;100.00;97430.09;5094473;28;20568;-66
2024/01/17 02:47:48;;;;;;;8.70;4.93;;;;;;;-4.08;100.00;97435.78;5111126;28;20047;-66
2024/01/17 02:50:17;;;;;;;8.30;5.10;;;;;;;-4.09;100.00;97424.59;5095184;28;20403;-66
2024/01/17 02:52:44;;;;;;;10.05;5.68;;;;;;;-4.09;100.00;97423.78;5095367;28;20047;-66
2024/01/17 02:55:11;;;;;;;10.17;5.30;;;;;;;-4.06;100.00;97433.91;5113248;28;20054;-66
2024/01/17 02:57:38;;;;;;;10.90;5.60;;;;;;;-4.11;100.00;97436.88;5094823;28;20061;-66
2024/01/17 03:00:05;;;;;;;11.43;5.73;;;;;;;-4.11;100.00;97447.22;5094913;28;20051;-66
2024/01/17 03:02:31;;;;;;;10.63;5.60;;;;;;;-4.16;100.00;97438.97;5111775;28;20039;-66
2024/01/17 03:04:57;;;;;;;10.93;5.30;;;;;;;-4.12;100.00;97453.34;5078091;28;20050;-66
2024/01/17 03:07:23;;;;;;;11.10;5.83;;;;;;;-4.13;100.00;97440.50;5112754;28;20051;-65
2024/01/17 03:09:48;;;;;;;8.70;5.27;;;;;;;-4.16;100.00;97446.75;5131607;27;20035;-67
2024/01/17 03:12:14;;;;;;;10.80;6.17;;;;;;;-4.11;100.00;97469.72;5115463;27;20132;-65
2024/01/17 03:14:40;;;;;;;11.20;6.23;;;;;;;-4.13;100.00;97466.41;5131834;27;20035;-66
2024/01/17 03:17:06;;;;;;;11.10;5.30;;;;;;;-4.18;100.00;97466.78;5115032;27;20775;-68
2024/01/17 03:19:31;;;;;;;8.73;5.07;;;;;;;-4.11;100.00;97483.50;5133046;27;20047;-66
2024/01/17 03:21:58;;;;;;;11.67;5.30;;;;;;;-4.10;100.00;97482.56;5110642;28;20138;-67
2024/01/17 03:24:24;;;;;;;9.13;5.17;;;;;;;-4.13;100.00;97480.19;5111209;28;20142;-66
2024/01/17 03:26:49;;;;;;;11.80;5.70;;;;;;;-4.14;100.00;97475.97;5111428;28;20043;-66
2024/01/17 03:29:15;;;;;;;11.10;5.10;;;;;;;-4.16;100.00;97483.03;5111652;28;20432;-66
2024/01/17 03:31:41;;;;;;;10.60;5.87;;;;;;;-4.10;100.00;97495.50;5111330;28;20043;-66
2024/01/17 03:34:06;;;;;;;10.57;5.50;;;;;;;-4.10;100.00;97489.50;5111308;28;20039;-65
2024/01/17 03:36:32;;;;;;;8.23;5.17;;;;;;;-4.10;100.00;97489.50;5094609;28;20043;-65
2024/01/17 03:38:58;;;;;;;8.43;5.00;;;;;;;-4.07;100.00;97508.22;5094447;28;20051;-65
2024/01/17 03:41:23;;;;;;;10.27;5.07;;;;;;;-4.03;100.00;97514.81;5077392;28;20062;-65
2024/01/17 03:43:50;;;;;;;8.67;4.97;;;;;;;-3.91;100.00;97511.28;5111475;28;20063;-66
2024/01/17 03:46:17;;;;;;;8.03;4.80;;;;;;;-3.95;100.00;97522.00;5117515;27;20039;-65
2024/01/17 03:48:42;;;;;;;9.33;5.00;;;;;;;-3.96;100.00;97528.13;5131837;27;20039;-65
2024/01/17 03:51:08;;;;;;;8.97;4.57;;;;;;;-3.98;100.00;97536.00;5114505;27;20080;-65
2024/01/17 03:53:34;;;;;;;5.97;3.60;;;;;;;-3.94;100.00;97544.38;5097777;28;20043;-65
2024/01/17 03:56:00;;;;;;;7.87;4.40;;;;;;;-3.94;100.00;97550.41;5131464;27;20074;-65
2024/01/17 03:58:26;;;;;;;6.70;3.83;;;;;;;-3.92;100.00;97560.66;5114871;28;20069;-65
2024/01/17 04:00:52;;;;;;;9.23;4.47;;;;;;;-3.93;100.00;97558.97;5131235;28;20035;-65
2024/01/17 04:03:17;;;;;;;9.23;4.30;;;;;;;-3.98;100.00;97576.66;5116091;28;20100;-66
2024/01/17 04:05:43;;;;;;;8.73;4.67;;;;;;;-4.01;100.00;97582.06;5114740;28;20041;-67
2024/01/17 04:08:12;;;;;;;9.67;5.00;;;;;;;-4.00;100.00;97592.31;5115317;28;20039;-67
2024/01/17 04:10:37;;;;;;;10.00;4.47;;;;;;;-4.08;100.00;97584.34;5097771;28;20505;-70
2024/01/17 04:13:03;;;;;;;9.63;4.47;;;;;;;-4.19;100.00;97609.41;5116467;28;20490;-72
2024/01/17 04:15:29;;;;;;;9.10;4.23;;;;;;;-4.25;100.00;97602.94;5115798;28;20100;-76
2024/01/17 04:17:55;;;;;;;9.63;4.50;;;;;;;-4.32;100.00;97606.91;5100061;27;20142;-76
2024/01/17 04:20:21;;;;;;;8.93;4.97;;;;;;;-4.35;100.00;97609.75;5102069;27;20099;-71
2024/01/17 04:22:47;;;;;;;10.43;4.37;;;;;;;-4.40;100.00;97618.81;5131671;27;20043;-69
2024/01/17 04:25:14;;;;;;;7.03;3.90;;;;;;;-4.43;100.00;97632.00;5114361;28;20124;-67
2024/01/17 04:27:44;;;;;;;7.17;4.60;;;;;;;-4.49;100.00;97632.47;5109636;28;20096;-66
2024/01/17 04:30:14;;;;;;;7.37;4.20;;;;;;;-4.40;100.00;97647.31;5028798;28;20059;-67
2024/01/17 04:32:41;;;;;;;5.53;3.40;;;;;;;-4.58;100.00;97639.13;5058299;28;20044;-67
2024/01/17 04:35:07;;;;;;;8.60;4.43;;;;;;;-4.55;100.00;97644.06;5080945;28;20048;-69
2024/01/17 04:37:33;;;;;;;7.20;4.20;;;;;;;-4.64;100.00;97660.31;5098147;28;20048;-69
2024/01/17 04:39:59;;;;;;;7.77;3.90;;;;;;;-4.64;100.00;97669.84;5080166;28;20108;-70
2024/01/17 04:42:25;;;;;;;9.03;4.50;;;;;;;-4.70;100.00;97667.69;5039341;28;20044;-70
2024/01/17 04:44:51;;;;;;;7.87;4.00;;;;;;;-4.74;100.00;97674.88;5054489;28;20121;-72
2024/01/17 04:47:16;;;;;;;8.87;4.63;;;;;;;-4.76;100.00;97681.06;5036151;28;20049;-71
2024/01/17 04:49:43;;;;;;;7.83;4.43;;;;;;;-4.75;100.00;97688.72;5035435;28;20063;-71
2024/01/17 04:52:15;;;;;;;8.80;4.33;;;;;;;-4.84;100.00;97683.41;5053440;28;20071;-71
2024/01/17 04:54:42;;;;;;;9.03;4.47;;;;;;;-4.86;100.00;97683.53;5051711;28;20048;-71
2024/01/17 04:57:10;;;;;;;6.97;4.33;;;;;;;-4.90;100.00;97692.44;5034090;28;20049;-72
2024/01/17 04:59:37;;;;;;;7.80;3.87;;;;;;;-4.91;100.00;97688.22;5071773;28;20489;-70
2024/01/17 05:02:03;;;;;;;8.03;3.83;;;;;;;-5.03;100.00;97698.59;5065283;28;20082;-73
2024/01/17 05:04:30;;;;;;;8.20;3.70;;;;;;;-5.06;100.00;97689.31;5057157;28;20368;-71
2024/01/17 05:06:55;;;;;;;6.60;3.50;;;;;;;-5.11;100.00;97719.03;5073380;28;20455;-71
2024/01/17 05:09:22;;;;;;;6.73;3.90;;;;;;;-5.14;100.00;97722.66;5073632;28;20105;-72
2024/01/17 05:11:48;;;;;;;6.97;3.57;;;;;;;-5.19;100.00;97724.72;5040087;28;20055;-73
2024/01/17 05:14:15;;;;;;;6.13;3.50;;;;;;;-5.19;100.00;97724.72;5075922;27;20059;-72
2024/01/17 05:16:41;;;;;;;6.83;3.50;;;;;;;-5.21;100.00;97731.75;5116711;27;20140;-72
2024/01/17 05:19:07;;;;;;;6.00;3.47;;;;;;;-5.24;100.00;97729.41;5061130;28;20146;-72
2024/01/17 05:21:33;;;;;;;5.87;3.90;;;;;;;-5.25;100.00;97744.13;5077515;28;20165;-72
2024/01/17 05:23:59;;;;;;;5.40;3.17;;;;;;;-5.29;100.00;97752.19;5111130;28;20055;-72
2024/01/17 05:26:24;;;;;;;7.87;4.03;;;;;;;-5.34;100.00;97762.03;5057358;28;20048;-72
2024/01/17 05:28:51;;;;;;;9.23;3.70;;;;;;;-5.26;100.00;97762.31;5075377;28;20252;-71
2024/01/17 05:31:18;;;;;;;7.00;3.70;;;;;;;-5.36;100.00;97753.53;5058767;28;20090;-71
2024/01/17 05:33:44;;;;;;;6.73;3.33;;;;;;;-5.39;100.00;97774.44;5055723;28;20068;-67
2024/01/17 05:36:10;;;;;;;5.47;3.43;;;;;;;-5.50;100.00;97761.41;5045642;28;20065;-72
2024/01/17 05:38:37;;;;;;;8.80;3.33;;;;;;;-5.51;100.00;97780.44;5084668;28;20036;-71
2024/01/17 05:41:03;;;;;;;8.13;3.50;;;;;;;-5.56;100.00;97772.19;5057564;28;20044;-72
2024/01/17 05:43:29;;;;;;;7.10;3.23;;;;;;;-5.61;100.00;97774.25;5073511;28;20150;-73
2024/01/17 05:45:57;;;;;;;5.53;3.07;;;;;;;-5.68;100.00;97785.94;5074692;28;20060;-71
2024/01/17 05:48:24;;;;;;;6.47;3.40;;;;;;;-5.71;100.00;97796.50;5066918;28;20047;-72
2024/01/17 05:50:50;;;;;;;5.33;3.30;;;;;;;-5.84;100.00;97773.25;5054677;28;20058;-73
2024/01/17 05:53:15;;;;;;;6.20;2.97;;;;;;;-5.83;100.00;97782.69;5054585;28;20052;-73
2024/01/17 05:55:42;;;;;;;5.60;3.63;;;;;;;-5.78;100.00;97782.34;5075538;28;20484;-74
2024/01/17 05:58:09;;;;;;;5.90;3.23;;;;;;;-5.83;100.00;97797.34;5105527;28;20048;-73
2024/01/17 06:00:36;;;;;;;6.10;2.83;;;;;;;-5.81;100.00;97804.03;5116528;27;20043;-72
2024/01/17 06:03:05;;;;;;;6.10;2.87;;;;;;;-5.83;100.00;97799.94;5116243;27;20074;-73
2024/01/17 06:05:36;;;;;;;5.80;3.13;;;;;;;-5.78;100.00;97813.34;5099674;27;20051;-74
2024/01/17 06:08:05;;;;;;;7.73;3.30;;;;;;;-5.88;100.00;97801.97;5080621;28;20043;-74
2024/01/17 06:10:34;;;;;;;5.93;3.43;;;;;;;-5.82;100.00;97836.00;5102937;28;20112;-74
2024/01/17 06:13:00;;;;;;;4.63;2.97;;;;;;;-5.87;100.00;97824.31;5093725;27;20143;-72
2024/01/17 06:15:27;;;;;;;6.27;2.93;;;;;;;-5.86;100.00;97833.72;5104928;27;20506;-75
2024/01/17 06:17:55;;;;;;;5.00;3.17;;;;;;;-5.85;100.00;97835.38;5075509;27;20039;-73
2024/01/17 06:20:25;;;;;;;6.82;2.90;;;;;;;-5.89;100.00;97846.84;5085609;28;20043;-74
2024/01/17 06:22:54;;;;;;;7.57;3.57;;;;;;;-5.88;100.00;97851.91;5018268;28;20046;-74
2024/01/17 06:25:20;;;;;;;7.03;3.60;;;;;;;-5.85;100.00;97840.53;5002697;28;20136;-72
2024/01/17 06:27:48;;;;;;;6.83;3.60;;;;;;;-5.79;100.00;97856.44;4996259;28;20053;-73
2024/01/17 06:30:17;;;;;;;5.93;3.17;;;;;;;-5.78;100.00;97849.53;4982769;28;20100;-73
2024/01/17 06:32:43;;;;;;;6.90;3.27;;;;;;;-5.88;100.00;97827.81;4985080;28;20057;-74
2024/01/17 06:35:11;;;;;;;6.40;3.40;;;;;;;-5.92;100.00;97854.81;4990142;28;20054;-75
2024/01/17 06:37:38;;;;;;;5.70;3.27;;;;;;;-5.84;100.00;97855.09;4987333;28;20458;-74
2024/01/17 06:40:05;;;;;;;5.30;3.33;;;;;;;-5.91;100.00;97869.38;4976156;28;20038;-73
2024/01/17 06:42:30;;;;;;;6.57;3.20;;;;;;;-5.97;100.00;97870.63;4999687;28;20049;-73
2024/01/17 06:44:56;;;;;;;4.63;2.93;;;;;;;-5.97;100.00;97867.19;4973448;28;20050;-73
2024/01/17 06:47:22;;;;;;;5.40;3.03;;;;;;;-5.99;100.00;97877.63;4987448;28;20152;-74
2024/01/17 06:49:50;;;;;;;6.20;2.80;;;;;;;-5.96;100.00;97897.25;4962254;28;20448;-73
2024/01/17 06:52:16;;;;;;;4.03;2.93;;;;;;;-6.03;100.00;97885.69;4999903;28;20161;-74
2024/01/17 06:54:42;;;;;;;4.87;2.80;;;;;;;-6.00;100.00;97888.06;4969602;28;20546;-73
2024/01/17 06:57:09;;;;;;;6.43;3.23;;;;;;;-6.00;100.00;97899.22;5001337;28;20518;-73
2024/01/17 06:59:35;;;;;;;5.57;3.00;;;;;;;-5.99;100.00;97907.78;4979172;28;20054;-77
2024/01/17 07:02:01;;;;;;;6.93;3.50;;;;;;;-5.98;100.00;97914.63;4985750;28;20046;-74
2024/01/17 07:04:27;;;;;;;5.73;2.80;;;;;;;-5.98;100.00;97909.47;4967838;28;20141;-73
2024/01/17 07:06:53;;;;;;;7.07;3.20;;;;;;;-5.99;100.00;97900.03;4982520;28;20061;-74
2024/01/17 07:09:18;;;;;;;6.13;2.73;;;;;;;-6.00;100.00;97927.66;4995437;28;20704;-74
2024/01/17 07:11:47;;;;;;;5.67;3.23;;;;;;;-5.93;100.00;97928.06;5061474;28;20364;-74
2024/01/17 07:14:13;;;;;;;4.47;2.73;;;;;;;-6.01;100.00;97925.19;5091321;28;20090;-74
2024/01/17 07:16:39;;;;;;;6.43;3.27;;;;;;;-5.98;100.00;97935.31;5094669;28;20040;-73
2024/01/17 07:19:05;;;;;;;5.03;2.87;;;;;;;-5.93;100.00;97941.00;5045995;28;20039;-72
2024/01/17 07:21:31;;;;;;;3.57;2.70;;;;;;;-5.92;100.00;97940.88;5069974;28;20391;-73
2024/01/17 07:23:57;;;;;;;3.90;2.33;;;;;;;-5.88;100.00;97942.38;5095287;27;20058;-73
2024/01/17 07:26:23;;;;;;;3.83;2.47;;;;;;;-5.83;100.00;97960.16;5076965;27;20040;-72
2024/01/17 07:28:49;;;;;;;5.57;2.97;;;;;;;-5.79;100.00;97977.09;5097258;27;20052;-73
2024/01/17 07:31:18;;;;;;;3.97;2.60;;;;;;;-5.72;100.00;97978.38;5079002;27;20512;-72
2024/01/17 07:33:44;;;;;;;3.63;2.70;;;;;;;-5.72;100.00;97986.94;5128067;27;20039;-73
2024/01/17 07:36:09;;;;;;;5.77;3.10;;;;;;;-5.71;100.00;97985.19;5094997;27;20047;-74
2024/01/17 07:38:36;;;;;;;5.63;3.07;;;;;;;-5.69;100.00;97988.50;5096377;27;20046;-73
2024/01/17 07:41:02;;;;;;;5.70;3.00;;;;;;;-5.65;100.00;98003.72;5079945;27;20042;-74
2024/01/17 07:43:28;;;;;;;7.27;3.30;;;;;;;-5.68;100.00;98006.50;5113015;27;20047;-72
2024/01/17 07:45:57;;;;;;;5.17;3.20;;;;;;;-5.61;100.00;98006.94;5097938;27;20045;-73
2024/01/17 07:48:23;;;;;;;5.33;2.83;;;;;;;-5.69;100.00;98004.84;5035797;28;20060;-73
2024/01/17 07:50:49;;;;;;;3.77;2.83;;;;;;;-5.71;100.00;98027.38;5052624;28;20064;-73
2024/01/17 07:53:16;;;;;;;6.57;3.13;;;;;;;-5.71;100.00;98040.31;5051782;28;20041;-73
2024/01/17 07:55:42;;;;;;;6.70;3.37;;;;;;;-5.68;100.00;98041.88;5019020;28;20474;-73
2024/01/17 07:58:08;;;;;;;5.73;3.03;;;;;;;-5.67;100.00;98056.44;5002281;28;20051;-74
2024/01/17 08:00:36;;;;;;;6.83;3.17;;;;;;;-5.65;100.00;98057.19;5034771;28;20566;-72
2024/01/17 08:03:03;;;;;;;4.67;2.67;;;;;;;-5.57;100.00;98071.31;5030117;28;20424;-72
2024/01/17 08:05:33;;;;;;;5.40;2.57;;;;;;;-5.57;100.00;98075.63;5027537;28;20068;-67
2024/01/17 08:08:00;;;;;;;5.67;3.00;;;;;;;-5.52;100.00;98084.75;4997087;28;20049;-73
2024/01/17 08:10:26;;;;;;;5.03;3.00;;;;;;;-5.57;100.00;98089.41;4990890;28;20481;-73
2024/01/17 08:12:51;;;;;;;5.30;2.73;;;;;;;-5.58;100.00;98097.25;5014296;28;20046;-74
2024/01/17 08:15:19;;;;;;;6.07;3.03;;;;;;;-5.51;100.00;98099.34;4993806;28;20085;-71
2024/01/17 08:17:47;;;;;;;5.33;3.17;;;;;;;-5.56;100.00;98105.72;4996337;28;20103;-72
2024/01/17 08:20:16;;;;;;;5.27;3.00;;;;;;;-5.54;100.00;98109.06;4963846;28;20049;-73
2024/01/17 08:22:43;;;;;;;3.77;2.83;;;;;;;-5.44;100.00;98112.72;4961646;28;20054;-73
2024/01/17 08:25:09;;;;;;;4.50;3.00;;;;;;;-5.43;100.00;98106.63;4967279;28;20053;-74
2024/01/17 08:27:38;;;;;;;4.53;2.97;;;;;;;-5.38;100.00;98107.13;4999569;28;20077;-70
2024/01/17 08:30:09;;;;;;;5.47;3.10;;;;;;;-5.36;100.00;98126.00;4999123;28;20069;-72
2024/01/17 08:32:39;;;;;;;4.60;2.87;;;;;;;-5.34;100.00;98118.97;5016473;28;20128;-73
2024/01/17 08:35:11;;;;;;;4.53;2.90;;;;;;;-5.19;100.00;98118.00;5016695;28;20084;-73
2024/01/17 08:37:38;;;;;;;3.57;2.73;;;;;;;-5.11;100.00;98125.25;5071989;28;20052;-73
2024/01/17 08:40:07;;;;;;;5.07;2.93;;;;;;;-5.13;100.00;98129.72;5037935;28;20044;-73
2024/01/17 08:42:34;;;;;;;5.30;2.87;;;;;;;-5.11;100.00;98141.63;5012647;28;20139;-74
2024/01/17 08:45:06;;;;;;;3.57;2.60;;;;;;;-5.13;100.00;98127.13;5069346;28;20066;-73
2024/01/17 08:47:34;;;;;;;6.03;2.90;;;;;;;-5.13;100.00;98143.47;5016386;28;20521;-70
2024/01/17 08:50:01;;;;;;;4.90;2.90;;;;;;;-5.07;100.00;98148.25;5024689;28;20080;-71
2024/01/17 08:52:27;;;;;;;5.23;2.80;;;;;;;-5.06;100.00;98159.44;5071264;28;20048;-71
2024/01/17 08:54:57;;;;;;;5.23;2.90;;;;;;;-4.99;100.00;98148.59;5095295;28;20045;-71
2024/01/17 08:57:23;;;;;;;5.13;3.27;;;;;;;-5.06;100.00;98155.09;5078720;28;20056;-71
2024/01/17 08:59:49;;;;;;;4.17;2.80;;;;;;;-5.01;100.00;98162.56;5059704;28;20036;-68
2024/01/17 09:02:14;;;;;;;4.90;2.67;;;;;;;-5.05;100.00;98156.75;5078115;28;20047;-71
2024/01/17 09:04:41;;;;;;;3.93;2.80;;;;;;;-5.03;100.00;98173.03;5077874;28;20087;-68
2024/01/17 09:07:08;;;;;;;5.77;3.10;;;;;;;-5.07;100.00;98168.16;5076010;28;20052;-70
2024/01/17 09:09:35;;;;;;;4.97;3.30;;;;;;;-5.13;100.00;98169.34;5027925;28;20089;-68
2024/01/17 09:12:04;;;;;;;8.00;3.40;;;;;;;-5.13;100.00;98184.88;5057312;28;20048;-68
2024/01/17 09:14:30;;;;;;;4.53;3.20;;;;;;;-5.15;100.00;98194.47;5076991;28;20490;-66
2024/01/17 09:16:56;;;;;;;4.07;2.87;;;;;;;-5.18;100.00;98189.50;5094760;28;20044;-71
2024/01/17 09:19:24;;;;;;;4.47;2.87;;;;;;;-5.14;100.00;98206.50;5092448;27;20055;-70
2024/01/17 09:21:51;;;;;;;5.73;3.00;;;;;;;-5.05;100.00;98192.16;5099218;27;20035;-70
2024/01/17 09:24:20;;;;;;;4.13;2.60;;;;;;;-5.06;100.00;98200.84;5132453;27;20039;-72
2024/01/17 09:26:49;;;;;;;5.27;2.97;;;;;;;-5.10;100.00;98214.94;5116319;27;20162;-71
2024/01/17 09:29:17;;;;;;;4.53;2.72;;;;;;;-5.11;100.00;98216.66;5133379;27;20382;-71
2024/01/17 09:31:43;;;;;;;4.60;2.57;;;;;;;-5.10;100.00;98214.94;5114175;27;20546;-71
2024/01/17 09:34:09;;;;;;;3.97;2.77;;;;;;;-5.07;100.00;98206.97;5116938;27;20134;-72
2024/01/17 09:36:36;;;;;;;4.77;2.80;;;;;;;-4.96;100.00;98232.97;5134302;27;20132;-71
2024/01/17 09:39:03;;;;;;;5.73;3.23;;;;;;;-5.05;100.00;98218.03;5077037;28;20148;-71
2024/01/17 09:41:32;;;;;;;4.90;3.00;;;;;;;-5.05;100.00;98228.38;5111303;28;20487;-70
2024/01/17 09:44:01;;;;;;;3.83;2.70;;;;;;;-4.98;100.00;98237.44;5059074;28;20047;-72
2024/01/17 09:46:31;;;;;;;5.73;2.53;;;;;;;-4.88;100.00;98236.75;5092808;28;20043;-69
2024/01/17 09:48:59;;;;;;;5.23;3.27;;;;;;;-5.02;100.00;98239.38;5091263;28;20079;-69
2024/01/17 09:51:32;;;;;;;4.10;2.80;;;;;;;-4.90;100.00;98245.53;5043866;28;20043;-70
2024/01/17 09:54:05;;;;;;;5.90;3.07;;;;;;;-4.93;100.00;98243.97;5017510;28;20053;-70
2024/01/17 09:56:32;;;;;;;7.45;3.17;;;;;;;-4.97;100.00;98252.03;4973667;28;20050;-72
2024/01/17 09:59:14;;;;;;;4.57;2.73;;;;;;;-4.83;100.00;98250.25;4958996;28;20073;-71
2024/01/17 10:01:40;;;;;;;4.73;2.77;;;;;;;-4.96;100.00;98248.50;4954097;28;20149;-70
2024/01/17 10:04:08;;;;;;;4.93;2.93;;;;;;;-4.87;100.00;98260.91;4957966;28;20053;-71
2024/01/17 10:06:43;;;;;;;3.47;2.60;;;;;;;-4.85;100.00;98265.03;4974182;28;20394;-71
2024/01/17 10:09:13;;;;;;;4.77;2.80;;;;;;;-4.94;100.00;98270.81;4962653;28;20053;-71
2024/01/17 10:11:53;;;;;;;4.67;2.80;;;;;;;-4.84;100.00;98281.41;4984297;28;20600;-71
2024/01/17 10:14:24;;;;;;;8.43;3.30;;;;;;;-4.89;100.00;98281.72;5005175;28;20461;-72
2024/01/17 10:16:52;;;;;;;5.13;2.93;;;;;;;-4.92;100.00;98279.28;5006463;28;20045;-68
2024/01/17 10:19:18;;;;;;;5.80;3.10;;;;;;;-4.99;100.00;98280.59;5012644;28;20464;-68
2024/01/17 10:21:44;;;;;;;3.70;2.60;;;;;;;-5.02;100.00;98275.63;4999240;28;20100;-70
2024/01/17 10:24:12;;;;;;;4.50;2.67;;;;;;;-4.96;100.00;98290.75;4990385;28;20052;-68
2024/01/17 10:26:44;;;;;;;4.87;2.70;;;;;;;-4.81;100.00;98305.34;5043897;27;20051;-70
2024/01/17 10:29:13;;;;;;;5.40;3.10;;;;;;;-4.92;100.00;98296.59;5081303;27;20039;-71
2024/01/17 10:31:42;;;;;;;4.20;3.17;;;;;;;-4.87;100.00;98297.94;5113101;27;20099;-72
2024/01/17 10:34:08;;;;;;;5.87;3.20;;;;;;;-5.01;100.00;98304.94;5115623;27;20039;-71
2024/01/17 10:36:38;;;;;;;3.87;2.50;;;;;;;-5.01;100.00;98317.88;5115419;27;20039;-70
2024/01/17 10:39:04;;;;;;;4.30;2.85;;;;;;;-5.06;100.00;98310.38;5134329;27;20183;-71
2024/01/17 10:41:31;;;;;;;4.53;2.47;;;;;;;-5.03;100.00;98323.13;5113458;27;20039;-71
2024/01/17 10:44:00;;;;;;;3.63;2.73;;;;;;;-4.99;100.00;98322.00;5114790;27;20043;-70
2024/01/17 10:46:26;;;;;;;5.13;2.63;;;;;;;-5.07;100.00;98324.22;5089721;28;20135;-70
2024/01/17 10:48:56;;;;;;;4.33;2.83;;;;;;;-5.09;100.00;98330.44;5055906;28;20059;-71
2024/01/17 10:51:24;;;;;;;5.37;2.77;;;;;;;-5.08;100.00;98330.34;5055536;28;20040;-70
2024/01/17 10:53:55;;;;;;;4.97;2.87;;;;;;;-5.15;100.00;98323.88;5056686;28;20487;-70
2024/01/17 10:56:22;;;;;;;5.10;2.77;;;;;;;-5.15;100.00;98351.50;5039264;28;20048;-70
2024/01/17 10:58:50;;;;;;;5.33;3.03;;;;;;;-5.14;100.00;98343.66;5039123;28;20039;-70
2024/01/17 11:01:25;;;;;;;4.20;2.83;;;;;;;-5.10;100.00;98350.31;5055473;28;20043;-71
2024/01/17 11:03:55;;;;;;;6.23;3.00;;;;;;;-5.23;100.00;98354.56;5040127;28;20043;-68
2024/01/17 11:06:27;;;;;;;5.40;2.80;;;;;;;-5.22;100.00;98340.69;5056430;28;20070;-68
2024/01/17 11:09:06;;;;;;;5.00;2.90;;;;;;;-5.20;100.00;98351.78;5057202;28;20079;-70
2024/01/17 11:11:32;;;;;;;4.97;2.90;;;;;;;-5.17;100.00;98355.00;5055231;28;20052;-69
2024/01/17 11:13:58;;;;;;;5.27;2.87;;;;;;;-5.22;100.00;98359.66;5072934;28;20047;-70
2024/01/17 11:16:25;;;;;;;6.47;3.13;;;;;;;-5.16;100.00;98376.56;5076143;27;20036;-69
2024/01/17 11:18:51;;;;;;;6.33;3.27;;;;;;;-5.26;100.00;98375.44;5114261;27;20046;-71
2024/01/17 11:21:20;;;;;;;5.17;2.73;;;;;;;-5.22;100.00;98390.69;5131191;27;20053;-70
2024/01/17 11:23:51;;;;;;;5.03;3.00;;;;;;;-5.20;100.00;98398.38;5113898;27;20062;-71